sensor_id;sensor_type;location;lat;lon;timestamp;temperature;humidity
530;DHT22;251;48.704;9.210;2023-02-01T00:01:58;3.80;49.00
530;DHT22;251;48.704;9.210;2023-02-01T00:04:26;3.70;49.00
530;DHT22;251;48.704;9.210;2023-02-01T00:06:52;3.90;49.70
530;DHT22;251;48.704;9.210;2023-02-01T00:09:19;3.80;49.50
530;DHT22;251;48.704;9.210;2023-02-01T00:11:46;3.80;49.60
530;DHT22;251;48.704;9.210;2023-02-01T00:14:14;3.60;49.80
530;DHT22;251;48.704;9.210;2023-02-01T00:16:42;3.90;50.10
530;DHT22;251;48.704;9.210;2023-02-01T00:19:12;3.90;50.10
530;DHT22;251;48.704;9.210;2023-02-01T00:21:40;3.60;50.10
530;DHT22;251;48.704;9.210;2023-02-01T00:24:09;3.80;50.20
530;DHT22;251;48.704;9.210;2023-02-01T00:26:37;3.90;50.70
530;DHT22;251;48.704;9.210;2023-02-01T00:29:07;3.50;49.90
530;DHT22;251;48.704;9.210;2023-02-01T00:31:37;3.90;50.10
530;DHT22;251;48.704;9.210;2023-02-01T00:34:04;3.80;50.00
530;DHT22;251;48.704;9.210;2023-02-01T00:36:31;3.80;50.00
530;DHT22;251;48.704;9.210;2023-02-01T00:38:58;3.90;50.20
530;DHT22;251;48.704;9.210;2023-02-01T00:41:25;3.90;50.40
530;DHT22;251;48.704;9.210;2023-02-01T00:43:52;3.40;49.80
530;DHT22;251;48.704;9.210;2023-02-01T00:46:19;3.90;50.10
530;DHT22;251;48.704;9.210;2023-02-01T00:48:48;3.60;49.70
530;DHT22;251;48.704;9.210;2023-02-01T00:51:17;3.70;49.80
530;DHT22;251;48.704;9.210;2023-02-01T00:53:44;3.60;49.60
530;DHT22;251;48.704;9.210;2023-02-01T00:56:12;3.80;49.70
530;DHT22;251;48.704;9.210;2023-02-01T00:58:39;3.60;49.70
530;DHT22;251;48.704;9.210;2023-02-01T01:01:08;3.80;49.50
530;DHT22;251;48.704;9.210;2023-02-01T01:03:37;3.80;49.50
530;DHT22;251;48.704;9.210;2023-02-01T01:06:07;3.90;49.50
530;DHT22;251;48.704;9.210;2023-02-01T01:08:35;3.90;49.50
530;DHT22;251;48.704;9.210;2023-02-01T01:11:05;3.80;49.20
530;DHT22;251;48.704;9.210;2023-02-01T01:13:32;3.70;49.20
530;DHT22;251;48.704;9.210;2023-02-01T01:16:00;3.80;49.30
530;DHT22;251;48.704;9.210;2023-02-01T01:18:28;3.80;49.50
530;DHT22;251;48.704;9.210;2023-02-01T01:20:55;3.80;49.60
530;DHT22;251;48.704;9.210;2023-02-01T01:23:23;3.80;49.40
530;DHT22;251;48.704;9.210;2023-02-01T01:25:50;3.90;49.50
530;DHT22;251;48.704;9.210;2023-02-01T01:28:17;3.40;48.90
530;DHT22;251;48.704;9.210;2023-02-01T01:30:43;3.80;49.40
530;DHT22;251;48.704;9.210;2023-02-01T01:33:10;3.90;48.90
530;DHT22;251;48.704;9.210;2023-02-01T01:35:37;3.70;48.70
530;DHT22;251;48.704;9.210;2023-02-01T01:38:04;3.90;48.50
530;DHT22;251;48.704;9.210;2023-02-01T01:40:32;3.70;48.30
530;DHT22;251;48.704;9.210;2023-02-01T01:42:59;3.80;48.20
530;DHT22;251;48.704;9.210;2023-02-01T01:45:27;3.80;48.50
530;DHT22;251;48.704;9.210;2023-02-01T01:47:58;3.80;49.00
530;DHT22;251;48.704;9.210;2023-02-01T01:50:29;3.90;48.80
530;DHT22;251;48.704;9.210;2023-02-01T01:52:59;3.70;48.40
530;DHT22;251;48.704;9.210;2023-02-01T01:55:36;3.80;48.70
530;DHT22;251;48.704;9.210;2023-02-01T01:58:06;3.90;48.60
530;DHT22;251;48.704;9.210;2023-02-01T02:00:34;3.80;48.60
530;DHT22;251;48.704;9.210;2023-02-01T02:03:06;3.60;48.10
530;DHT22;251;48.704;9.210;2023-02-01T02:05:34;3.90;48.40
530;DHT22;251;48.704;9.210;2023-02-01T02:11:50;3.90;48.40
530;DHT22;251;48.704;9.210;2023-02-01T02:14:19;3.60;47.90
530;DHT22;251;48.704;9.210;2023-02-01T02:17:04;3.70;48.40
530;DHT22;251;48.704;9.210;2023-02-01T02:20:07;3.70;48.20
530;DHT22;251;48.704;9.210;2023-02-01T02:22:55;3.90;48.50
530;DHT22;251;48.704;9.210;2023-02-01T02:25:48;3.90;48.40
530;DHT22;251;48.704;9.210;2023-02-01T02:28:49;3.60;48.20
530;DHT22;251;48.704;9.210;2023-02-01T02:31:37;3.60;48.40
530;DHT22;251;48.704;9.210;2023-02-01T02:34:14;3.90;48.70
530;DHT22;251;48.704;9.210;2023-02-01T02:36:52;3.70;48.20
530;DHT22;251;48.704;9.210;2023-02-01T02:39:30;3.90;48.60
530;DHT22;251;48.704;9.210;2023-02-01T02:42:03;3.90;48.50
530;DHT22;251;48.704;9.210;2023-02-01T02:44:56;3.90;48.50
530;DHT22;251;48.704;9.210;2023-02-01T02:47:45;3.90;48.50
530;DHT22;251;48.704;9.210;2023-02-01T02:50:20;3.90;48.50
530;DHT22;251;48.704;9.210;2023-02-01T02:53:12;3.90;48.70
530;DHT22;251;48.704;9.210;2023-02-01T02:55:58;3.80;48.70
530;DHT22;251;48.704;9.210;2023-02-01T02:58:46;3.90;48.80
530;DHT22;251;48.704;9.210;2023-02-01T03:01:31;3.80;48.60
530;DHT22;251;48.704;9.210;2023-02-01T03:04:16;3.90;48.60
530;DHT22;251;48.704;9.210;2023-02-01T03:06:47;4.10;48.70
530;DHT22;251;48.704;9.210;2023-02-01T03:09:19;4.10;48.40
530;DHT22;251;48.704;9.210;2023-02-01T03:11:50;3.70;48.60
530;DHT22;251;48.704;9.210;2023-02-01T03:14:41;3.90;48.90
530;DHT22;251;48.704;9.210;2023-02-01T03:17:13;4.10;49.40
530;DHT22;251;48.704;9.210;2023-02-01T03:19:43;4.20;49.40
530;DHT22;251;48.704;9.210;2023-02-01T03:22:18;4.10;48.90
530;DHT22;251;48.704;9.210;2023-02-01T03:24:48;3.90;48.90
530;DHT22;251;48.704;9.210;2023-02-01T03:27:20;3.90;48.90
530;DHT22;251;48.704;9.210;2023-02-01T03:29:51;4.10;48.90
530;DHT22;251;48.704;9.210;2023-02-01T03:32:19;4.10;48.90
530;DHT22;251;48.704;9.210;2023-02-01T03:34:47;4.20;48.90
530;DHT22;251;48.704;9.210;2023-02-01T03:37:21;4.10;48.90
530;DHT22;251;48.704;9.210;2023-02-01T03:39:53;4.10;48.70
530;DHT22;251;48.704;9.210;2023-02-01T03:42:27;4.00;48.60
530;DHT22;251;48.704;9.210;2023-02-01T03:44:58;4.00;49.30
530;DHT22;251;48.704;9.210;2023-02-01T03:47:30;4.20;49.40
530;DHT22;251;48.704;9.210;2023-02-01T03:50:03;4.10;49.70
530;DHT22;251;48.704;9.210;2023-02-01T03:52:38;4.20;50.30
530;DHT22;251;48.704;9.210;2023-02-01T03:55:07;3.90;50.40
530;DHT22;251;48.704;9.210;2023-02-01T03:57:38;4.00;51.20
530;DHT22;251;48.704;9.210;2023-02-01T04:00:09;3.60;50.80
530;DHT22;251;48.704;9.210;2023-02-01T04:02:39;3.90;50.70
530;DHT22;251;48.704;9.210;2023-02-01T04:05:07;3.80;51.00
530;DHT22;251;48.704;9.210;2023-02-01T04:07:36;3.90;51.20
530;DHT22;251;48.704;9.210;2023-02-01T04:10:04;4.00;51.10
530;DHT22;251;48.704;9.210;2023-02-01T04:12:31;3.90;51.00
530;DHT22;251;48.704;9.210;2023-02-01T04:14:57;3.90;51.00
530;DHT22;251;48.704;9.210;2023-02-01T04:17:24;4.00;50.80
530;DHT22;251;48.704;9.210;2023-02-01T04:19:51;4.10;51.10
530;DHT22;251;48.704;9.210;2023-02-01T04:22:18;3.70;50.30
530;DHT22;251;48.704;9.210;2023-02-01T04:24:46;4.00;50.40
530;DHT22;251;48.704;9.210;2023-02-01T04:27:13;3.90;50.30
530;DHT22;251;48.704;9.210;2023-02-01T04:29:39;4.20;50.30
530;DHT22;251;48.704;9.210;2023-02-01T04:32:06;4.20;50.00
530;DHT22;251;48.704;9.210;2023-02-01T04:34:33;4.10;49.90
530;DHT22;251;48.704;9.210;2023-02-01T04:37:00;4.10;49.90
530;DHT22;251;48.704;9.210;2023-02-01T04:39:27;4.10;49.40
530;DHT22;251;48.704;9.210;2023-02-01T04:41:56;4.20;49.50
530;DHT22;251;48.704;9.210;2023-02-01T04:44:23;4.10;49.40
530;DHT22;251;48.704;9.210;2023-02-01T04:46:50;4.20;49.50
530;DHT22;251;48.704;9.210;2023-02-01T04:49:17;4.20;48.90
530;DHT22;251;48.704;9.210;2023-02-01T04:51:44;4.10;49.10
530;DHT22;251;48.704;9.210;2023-02-01T04:54:10;4.10;48.90
530;DHT22;251;48.704;9.210;2023-02-01T04:56:37;4.10;48.60
530;DHT22;251;48.704;9.210;2023-02-01T04:59:06;4.00;48.70
530;DHT22;251;48.704;9.210;2023-02-01T05:01:32;3.90;48.40
530;DHT22;251;48.704;9.210;2023-02-01T05:03:59;4.20;48.40
530;DHT22;251;48.704;9.210;2023-02-01T05:06:26;4.20;48.50
530;DHT22;251;48.704;9.210;2023-02-01T05:08:53;4.00;48.10
530;DHT22;251;48.704;9.210;2023-02-01T05:11:20;4.20;47.90
530;DHT22;251;48.704;9.210;2023-02-01T05:14:05;4.20;47.90
530;DHT22;251;48.704;9.210;2023-02-01T05:16:32;4.20;47.80
530;DHT22;251;48.704;9.210;2023-02-01T05:18:59;4.10;47.80
530;DHT22;251;48.704;9.210;2023-02-01T05:21:25;4.20;47.70
530;DHT22;251;48.704;9.210;2023-02-01T05:23:52;4.20;47.30
530;DHT22;251;48.704;9.210;2023-02-01T05:26:39;4.00;47.10
530;DHT22;251;48.704;9.210;2023-02-01T05:29:08;4.10;47.20
530;DHT22;251;48.704;9.210;2023-02-01T05:31:36;4.20;47.20
530;DHT22;251;48.704;9.210;2023-02-01T05:34:03;4.00;47.30
530;DHT22;251;48.704;9.210;2023-02-01T05:36:30;4.10;46.90
530;DHT22;251;48.704;9.210;2023-02-01T05:38:57;4.10;46.60
530;DHT22;251;48.704;9.210;2023-02-01T05:41:24;4.10;46.70
530;DHT22;251;48.704;9.210;2023-02-01T05:43:50;4.10;46.60
530;DHT22;251;48.704;9.210;2023-02-01T05:46:18;4.10;46.70
530;DHT22;251;48.704;9.210;2023-02-01T05:48:45;4.10;46.50
530;DHT22;251;48.704;9.210;2023-02-01T05:51:12;4.00;45.70
530;DHT22;251;48.704;9.210;2023-02-01T05:53:39;4.20;46.50
530;DHT22;251;48.704;9.210;2023-02-01T05:56:06;4.10;46.80
530;DHT22;251;48.704;9.210;2023-02-01T05:58:33;3.90;46.90
530;DHT22;251;48.704;9.210;2023-02-01T06:01:01;4.20;47.30
530;DHT22;251;48.704;9.210;2023-02-01T06:03:29;4.00;47.60
530;DHT22;251;48.704;9.210;2023-02-01T06:05:56;4.00;47.80
530;DHT22;251;48.704;9.210;2023-02-01T06:08:23;4.20;48.60
530;DHT22;251;48.704;9.210;2023-02-01T06:10:56;4.10;49.10
530;DHT22;251;48.704;9.210;2023-02-01T06:13:23;4.20;50.00
530;DHT22;251;48.704;9.210;2023-02-01T06:15:50;4.10;51.00
530;DHT22;251;48.704;9.210;2023-02-01T06:18:17;4.20;51.40
530;DHT22;251;48.704;9.210;2023-02-01T06:20:52;4.20;51.60
530;DHT22;251;48.704;9.210;2023-02-01T06:23:19;3.90;52.90
530;DHT22;251;48.704;9.210;2023-02-01T06:25:50;3.90;53.00
530;DHT22;251;48.704;9.210;2023-02-01T06:28:16;3.90;52.60
530;DHT22;251;48.704;9.210;2023-02-01T06:30:43;3.90;53.10
530;DHT22;251;48.704;9.210;2023-02-01T06:33:13;3.90;53.30
530;DHT22;251;48.704;9.210;2023-02-01T06:35:41;3.90;53.70
530;DHT22;251;48.704;9.210;2023-02-01T06:38:11;3.70;53.70
530;DHT22;251;48.704;9.210;2023-02-01T06:40:38;3.90;53.90
530;DHT22;251;48.704;9.210;2023-02-01T06:43:05;3.80;53.50
530;DHT22;251;48.704;9.210;2023-02-01T06:45:32;3.90;53.50
530;DHT22;251;48.704;9.210;2023-02-01T06:47:59;3.80;53.30
530;DHT22;251;48.704;9.210;2023-02-01T06:50:26;3.90;53.20
530;DHT22;251;48.704;9.210;2023-02-01T06:52:53;3.90;53.10
530;DHT22;251;48.704;9.210;2023-02-01T06:55:21;3.90;52.80
530;DHT22;251;48.704;9.210;2023-02-01T06:57:48;3.90;52.90
530;DHT22;251;48.704;9.210;2023-02-01T07:00:19;3.90;52.50
530;DHT22;251;48.704;9.210;2023-02-01T07:02:46;3.90;52.40
530;DHT22;251;48.704;9.210;2023-02-01T07:05:13;3.90;52.30
530;DHT22;251;48.704;9.210;2023-02-01T07:07:40;4.10;52.50
530;DHT22;251;48.704;9.210;2023-02-01T07:10:08;3.70;51.60
530;DHT22;251;48.704;9.210;2023-02-01T07:12:36;4.10;51.70
530;DHT22;251;48.704;9.210;2023-02-01T07:15:03;4.20;51.40
530;DHT22;251;48.704;9.210;2023-02-01T07:17:31;4.20;51.50
530;DHT22;251;48.704;9.210;2023-02-01T07:19:58;4.10;51.00
530;DHT22;251;48.704;9.210;2023-02-01T07:22:25;4.10;51.10
530;DHT22;251;48.704;9.210;2023-02-01T07:24:52;3.70;49.50
530;DHT22;251;48.704;9.210;2023-02-01T07:27:18;4.10;49.60
530;DHT22;251;48.704;9.210;2023-02-01T07:29:47;3.90;49.00
530;DHT22;251;48.704;9.210;2023-02-01T07:32:14;4.10;49.20
530;DHT22;251;48.704;9.210;2023-02-01T07:34:43;4.20;48.80
530;DHT22;251;48.704;9.210;2023-02-01T07:37:10;4.10;49.20
530;DHT22;251;48.704;9.210;2023-02-01T07:39:36;4.10;49.80
530;DHT22;251;48.704;9.210;2023-02-01T07:42:03;4.20;48.80
530;DHT22;251;48.704;9.210;2023-02-01T07:44:30;4.10;48.30
530;DHT22;251;48.704;9.210;2023-02-01T07:46:58;4.20;48.40
530;DHT22;251;48.704;9.210;2023-02-01T07:49:25;4.20;48.40
530;DHT22;251;48.704;9.210;2023-02-01T07:51:52;4.20;48.20
530;DHT22;251;48.704;9.210;2023-02-01T07:54:19;4.20;47.80
530;DHT22;251;48.704;9.210;2023-02-01T07:56:45;4.20;47.80
530;DHT22;251;48.704;9.210;2023-02-01T07:59:12;4.20;47.80
530;DHT22;251;48.704;9.210;2023-02-01T08:01:39;4.40;47.60
530;DHT22;251;48.704;9.210;2023-02-01T08:04:07;4.40;46.60
530;DHT22;251;48.704;9.210;2023-02-01T08:06:35;4.40;46.60
530;DHT22;251;48.704;9.210;2023-02-01T08:09:02;4.30;46.30
530;DHT22;251;48.704;9.210;2023-02-01T08:11:30;4.40;45.60
530;DHT22;251;48.704;9.210;2023-02-01T08:13:58;4.40;45.50
530;DHT22;251;48.704;9.210;2023-02-01T08:16:25;4.30;45.10
530;DHT22;251;48.704;9.210;2023-02-01T08:18:52;4.40;45.20
530;DHT22;251;48.704;9.210;2023-02-01T08:21:22;4.50;45.20
530;DHT22;251;48.704;9.210;2023-02-01T08:23:49;4.40;44.80
530;DHT22;251;48.704;9.210;2023-02-01T08:26:18;4.40;43.70
530;DHT22;251;48.704;9.210;2023-02-01T08:28:48;4.40;44.00
530;DHT22;251;48.704;9.210;2023-02-01T08:31:18;4.40;42.80
530;DHT22;251;48.704;9.210;2023-02-01T08:33:48;4.40;42.40
530;DHT22;251;48.704;9.210;2023-02-01T08:36:16;4.50;42.60
530;DHT22;251;48.704;9.210;2023-02-01T08:38:44;4.60;42.20
530;DHT22;251;48.704;9.210;2023-02-01T08:41:13;4.30;42.00
530;DHT22;251;48.704;9.210;2023-02-01T08:43:40;4.70;41.50
530;DHT22;251;48.704;9.210;2023-02-01T08:46:08;4.40;41.00
530;DHT22;251;48.704;9.210;2023-02-01T08:48:36;4.60;42.10
530;DHT22;251;48.704;9.210;2023-02-01T08:51:04;4.50;41.80
530;DHT22;251;48.704;9.210;2023-02-01T08:53:31;4.70;41.50
530;DHT22;251;48.704;9.210;2023-02-01T08:56:00;4.70;41.40
530;DHT22;251;48.704;9.210;2023-02-01T08:58:27;4.70;41.40
530;DHT22;251;48.704;9.210;2023-02-01T09:00:54;4.70;40.80
530;DHT22;251;48.704;9.210;2023-02-01T09:03:21;4.70;41.30
530;DHT22;251;48.704;9.210;2023-02-01T09:05:48;4.70;40.70
530;DHT22;251;48.704;9.210;2023-02-01T09:08:15;4.70;40.00
530;DHT22;251;48.704;9.210;2023-02-01T09:10:42;4.70;40.30
530;DHT22;251;48.704;9.210;2023-02-01T09:13:10;4.70;40.60
530;DHT22;251;48.704;9.210;2023-02-01T09:15:37;4.80;40.90
530;DHT22;251;48.704;9.210;2023-02-01T09:18:04;4.80;40.40
530;DHT22;251;48.704;9.210;2023-02-01T09:20:31;4.70;40.60
530;DHT22;251;48.704;9.210;2023-02-01T09:22:57;4.70;41.00
530;DHT22;251;48.704;9.210;2023-02-01T09:25:25;4.80;41.30
530;DHT22;251;48.704;9.210;2023-02-01T09:27:53;4.90;40.90
530;DHT22;251;48.704;9.210;2023-02-01T09:30:21;4.90;41.00
530;DHT22;251;48.704;9.210;2023-02-01T09:32:47;4.60;41.10
530;DHT22;251;48.704;9.210;2023-02-01T09:35:14;4.70;41.00
530;DHT22;251;48.704;9.210;2023-02-01T09:37:41;4.60;40.30
530;DHT22;251;48.704;9.210;2023-02-01T09:40:12;4.70;40.00
530;DHT22;251;48.704;9.210;2023-02-01T09:42:57;4.70;40.10
530;DHT22;251;48.704;9.210;2023-02-01T09:45:32;4.70;39.20
530;DHT22;251;48.704;9.210;2023-02-01T09:48:08;4.70;38.70
530;DHT22;251;48.704;9.210;2023-02-01T09:50:38;4.60;37.90
530;DHT22;251;48.704;9.210;2023-02-01T09:53:10;4.70;38.00
530;DHT22;251;48.704;9.210;2023-02-01T09:55:41;4.70;37.30
530;DHT22;251;48.704;9.210;2023-02-01T09:58:14;4.80;37.30
530;DHT22;251;48.704;9.210;2023-02-01T10:00:50;4.70;37.60
530;DHT22;251;48.704;9.210;2023-02-01T10:03:18;5.00;37.60
530;DHT22;251;48.704;9.210;2023-02-01T10:05:58;5.10;37.20
530;DHT22;251;48.704;9.210;2023-02-01T10:08:33;5.10;36.40
530;DHT22;251;48.704;9.210;2023-02-01T10:11:13;5.00;37.00
530;DHT22;251;48.704;9.210;2023-02-01T10:13:54;4.90;36.70
530;DHT22;251;48.704;9.210;2023-02-01T10:16:33;4.90;35.90
530;DHT22;251;48.704;9.210;2023-02-01T10:21:59;5.00;36.80
530;DHT22;251;48.704;9.210;2023-02-01T10:24:42;5.20;35.80
530;DHT22;251;48.704;9.210;2023-02-01T10:27:17;5.10;36.00
530;DHT22;251;48.704;9.210;2023-02-01T10:29:49;5.20;36.50
530;DHT22;251;48.704;9.210;2023-02-01T10:32:22;4.90;35.40
530;DHT22;251;48.704;9.210;2023-02-01T10:34:52;5.00;34.90
530;DHT22;251;48.704;9.210;2023-02-01T10:37:26;5.00;35.00
530;DHT22;251;48.704;9.210;2023-02-01T10:39:55;5.00;35.40
530;DHT22;251;48.704;9.210;2023-02-01T10:42:26;5.40;34.80
530;DHT22;251;48.704;9.210;2023-02-01T10:44:55;5.00;33.90
530;DHT22;251;48.704;9.210;2023-02-01T10:47:24;5.40;33.70
530;DHT22;251;48.704;9.210;2023-02-01T10:49:56;5.00;33.10
530;DHT22;251;48.704;9.210;2023-02-01T10:52:31;5.20;34.20
530;DHT22;251;48.704;9.210;2023-02-01T10:55:27;5.00;32.70
530;DHT22;251;48.704;9.210;2023-02-01T10:57:56;5.30;32.10
530;DHT22;251;48.704;9.210;2023-02-01T11:00:24;5.30;31.20
530;DHT22;251;48.704;9.210;2023-02-01T11:02:52;5.30;32.00
530;DHT22;251;48.704;9.210;2023-02-01T11:05:20;5.40;32.30
530;DHT22;251;48.704;9.210;2023-02-01T11:07:49;5.30;32.10
530;DHT22;251;48.704;9.210;2023-02-01T11:10:35;5.20;32.10
530;DHT22;251;48.704;9.210;2023-02-01T11:13:03;5.40;30.90
530;DHT22;251;48.704;9.210;2023-02-01T11:15:30;5.30;30.00
530;DHT22;251;48.704;9.210;2023-02-01T11:18:14;5.50;29.80
530;DHT22;251;48.704;9.210;2023-02-01T11:20:41;5.20;29.60
530;DHT22;251;48.704;9.210;2023-02-01T11:23:14;5.50;29.70
530;DHT22;251;48.704;9.210;2023-02-01T11:25:48;5.60;28.30
530;DHT22;251;48.704;9.210;2023-02-01T11:28:15;5.60;29.00
530;DHT22;251;48.704;9.210;2023-02-01T11:30:44;5.70;28.40
530;DHT22;251;48.704;9.210;2023-02-01T11:33:15;5.60;27.60
530;DHT22;251;48.704;9.210;2023-02-01T11:35:43;5.90;27.80
530;DHT22;251;48.704;9.210;2023-02-01T11:38:18;5.60;25.80
530;DHT22;251;48.704;9.210;2023-02-01T11:40:46;5.70;26.60
530;DHT22;251;48.704;9.210;2023-02-01T11:43:23;5.70;26.70
530;DHT22;251;48.704;9.210;2023-02-01T11:45:55;5.60;25.20
530;DHT22;251;48.704;9.210;2023-02-01T11:48:25;5.60;24.60
530;DHT22;251;48.704;9.210;2023-02-01T11:51:04;5.80;25.30
530;DHT22;251;48.704;9.210;2023-02-01T11:53:46;5.60;25.20
530;DHT22;251;48.704;9.210;2023-02-01T11:56:25;5.60;24.40
530;DHT22;251;48.704;9.210;2023-02-01T11:59:12;5.70;24.80
530;DHT22;251;48.704;9.210;2023-02-01T12:01:53;5.60;24.00
530;DHT22;251;48.704;9.210;2023-02-01T12:04:53;6.10;24.60
530;DHT22;251;48.704;9.210;2023-02-01T12:07:31;6.00;24.50
530;DHT22;251;48.704;9.210;2023-02-01T12:10:15;5.60;24.90
530;DHT22;251;48.704;9.210;2023-02-01T12:12:48;5.60;24.10
530;DHT22;251;48.704;9.210;2023-02-01T12:15:33;5.90;24.70
530;DHT22;251;48.704;9.210;2023-02-01T12:18:41;5.70;24.70
530;DHT22;251;48.704;9.210;2023-02-01T12:21:28;5.60;24.20
530;DHT22;251;48.704;9.210;2023-02-01T12:24:13;5.60;24.80
530;DHT22;251;48.704;9.210;2023-02-01T12:26:52;5.60;24.10
530;DHT22;251;48.704;9.210;2023-02-01T12:29:57;5.60;24.60
530;DHT22;251;48.704;9.210;2023-02-01T12:32:49;6.10;23.80
530;DHT22;251;48.704;9.210;2023-02-01T12:35:31;6.10;24.00
530;DHT22;251;48.704;9.210;2023-02-01T12:38:19;6.10;23.40
530;DHT22;251;48.704;9.210;2023-02-01T12:40:59;5.80;23.00
530;DHT22;251;48.704;9.210;2023-02-01T12:43:37;6.10;23.40
530;DHT22;251;48.704;9.210;2023-02-01T12:46:09;5.90;23.00
530;DHT22;251;48.704;9.210;2023-02-01T12:48:41;5.60;24.00
530;DHT22;251;48.704;9.210;2023-02-01T12:51:12;5.90;23.00
530;DHT22;251;48.704;9.210;2023-02-01T12:53:46;5.60;23.60
530;DHT22;251;48.704;9.210;2023-02-01T12:56:25;5.60;23.50
530;DHT22;251;48.704;9.210;2023-02-01T12:58:54;5.90;23.40
530;DHT22;251;48.704;9.210;2023-02-01T13:01:28;5.60;23.30
530;DHT22;251;48.704;9.210;2023-02-01T13:04:02;5.90;23.40
530;DHT22;251;48.704;9.210;2023-02-01T13:06:33;5.60;23.10
530;DHT22;251;48.704;9.210;2023-02-01T13:09:08;5.60;23.30
530;DHT22;251;48.704;9.210;2023-02-01T13:11:38;5.80;23.10
530;DHT22;251;48.704;9.210;2023-02-01T13:14:11;5.90;23.50
530;DHT22;251;48.704;9.210;2023-02-01T13:16:42;5.50;22.70
530;DHT22;251;48.704;9.210;2023-02-01T13:19:15;5.60;24.30
530;DHT22;251;48.704;9.210;2023-02-01T13:21:46;5.50;23.30
530;DHT22;251;48.704;9.210;2023-02-01T13:24:27;5.70;23.30
530;DHT22;251;48.704;9.210;2023-02-01T13:26:55;5.60;23.60
530;DHT22;251;48.704;9.210;2023-02-01T13:29:23;5.50;24.00
530;DHT22;251;48.704;9.210;2023-02-01T13:32:25;5.60;24.10
530;DHT22;251;48.704;9.210;2023-02-01T13:35:16;5.60;23.60
530;DHT22;251;48.704;9.210;2023-02-01T13:38:03;5.80;24.00
530;DHT22;251;48.704;9.210;2023-02-01T13:40:39;5.50;23.90
530;DHT22;251;48.704;9.210;2023-02-01T13:43:11;5.70;23.90
530;DHT22;251;48.704;9.210;2023-02-01T13:45:44;5.60;24.20
530;DHT22;251;48.704;9.210;2023-02-01T13:48:19;5.80;24.40
530;DHT22;251;48.704;9.210;2023-02-01T13:50:52;5.60;23.90
530;DHT22;251;48.704;9.210;2023-02-01T13:53:25;5.50;24.20
530;DHT22;251;48.704;9.210;2023-02-01T13:55:58;5.60;24.80
530;DHT22;251;48.704;9.210;2023-02-01T13:58:31;5.70;24.30
530;DHT22;251;48.704;9.210;2023-02-01T14:03:59;5.70;24.70
530;DHT22;251;48.704;9.210;2023-02-01T14:06:40;5.40;24.80
530;DHT22;251;48.704;9.210;2023-02-01T14:09:15;5.30;24.50
530;DHT22;251;48.704;9.210;2023-02-01T14:11:47;5.60;24.90
530;DHT22;251;48.704;9.210;2023-02-01T14:14:44;5.40;25.10
530;DHT22;251;48.704;9.210;2023-02-01T14:17:36;5.30;25.30
530;DHT22;251;48.704;9.210;2023-02-01T14:23:22;5.60;25.20
530;DHT22;251;48.704;9.210;2023-02-01T14:26:24;5.20;25.00
530;DHT22;251;48.704;9.210;2023-02-01T14:29:15;5.50;25.20
530;DHT22;251;48.704;9.210;2023-02-01T14:31:54;5.70;25.10
530;DHT22;251;48.704;9.210;2023-02-01T14:34:35;5.30;25.10
530;DHT22;251;48.704;9.210;2023-02-01T14:37:11;5.50;25.30
530;DHT22;251;48.704;9.210;2023-02-01T14:39:50;5.70;25.20
530;DHT22;251;48.704;9.210;2023-02-01T14:42:23;5.80;25.50
530;DHT22;251;48.704;9.210;2023-02-01T14:44:53;5.60;25.30
530;DHT22;251;48.704;9.210;2023-02-01T14:47:31;5.30;25.20
530;DHT22;251;48.704;9.210;2023-02-01T14:52:51;5.50;25.90
530;DHT22;251;48.704;9.210;2023-02-01T14:55:27;5.60;25.20
530;DHT22;251;48.704;9.210;2023-02-01T14:57:58;5.30;25.30
530;DHT22;251;48.704;9.210;2023-02-01T15:00:28;5.40;25.50
530;DHT22;251;48.704;9.210;2023-02-01T15:03:15;5.50;25.40
530;DHT22;251;48.704;9.210;2023-02-01T15:05:44;5.30;25.30
530;DHT22;251;48.704;9.210;2023-02-01T15:08:16;5.70;25.30
530;DHT22;251;48.704;9.210;2023-02-01T15:10:48;5.70;25.30
530;DHT22;251;48.704;9.210;2023-02-01T15:13:20;5.50;25.50
530;DHT22;251;48.704;9.210;2023-02-01T15:16:05;5.60;25.10
530;DHT22;251;48.704;9.210;2023-02-01T15:18:32;5.80;24.80
530;DHT22;251;48.704;9.210;2023-02-01T15:21:01;5.50;25.00
530;DHT22;251;48.704;9.210;2023-02-01T15:23:28;5.80;24.30
530;DHT22;251;48.704;9.210;2023-02-01T15:25:55;5.50;24.20
530;DHT22;251;48.704;9.210;2023-02-01T15:28:23;5.60;24.60
530;DHT22;251;48.704;9.210;2023-02-01T15:30:58;5.60;24.40
530;DHT22;251;48.704;9.210;2023-02-01T15:33:27;5.80;24.80
530;DHT22;251;48.704;9.210;2023-02-01T15:36:06;5.60;24.40
530;DHT22;251;48.704;9.210;2023-02-01T15:38:37;5.50;24.80
530;DHT22;251;48.704;9.210;2023-02-01T15:41:10;5.70;24.40
530;DHT22;251;48.704;9.210;2023-02-01T15:43:41;5.60;24.30
530;DHT22;251;48.704;9.210;2023-02-01T15:46:11;5.60;24.10
530;DHT22;251;48.704;9.210;2023-02-01T15:48:43;5.50;23.40
530;DHT22;251;48.704;9.210;2023-02-01T15:51:17;5.60;24.10
530;DHT22;251;48.704;9.210;2023-02-01T15:53:47;5.70;24.00
530;DHT22;251;48.704;9.210;2023-02-01T15:56:15;5.70;24.20
530;DHT22;251;48.704;9.210;2023-02-01T15:58:46;5.60;24.50
530;DHT22;251;48.704;9.210;2023-02-01T16:01:14;5.60;24.20
530;DHT22;251;48.704;9.210;2023-02-01T16:03:43;5.70;25.00
530;DHT22;251;48.704;9.210;2023-02-01T16:06:27;5.60;24.90
530;DHT22;251;48.704;9.210;2023-02-01T16:08:59;5.60;25.20
530;DHT22;251;48.704;9.210;2023-02-01T16:11:28;5.30;24.90
530;DHT22;251;48.704;9.210;2023-02-01T16:13:56;5.50;25.30
530;DHT22;251;48.704;9.210;2023-02-01T16:16:23;5.70;25.50
530;DHT22;251;48.704;9.210;2023-02-01T16:18:51;5.80;26.00
530;DHT22;251;48.704;9.210;2023-02-01T16:21:18;5.50;25.40
530;DHT22;251;48.704;9.210;2023-02-01T16:23:48;5.50;25.60
530;DHT22;251;48.704;9.210;2023-02-01T16:26:16;5.40;25.40
530;DHT22;251;48.704;9.210;2023-02-01T16:28:43;5.30;25.20
530;DHT22;251;48.704;9.210;2023-02-01T16:31:12;5.30;25.60
530;DHT22;251;48.704;9.210;2023-02-01T16:33:45;5.30;25.80
530;DHT22;251;48.704;9.210;2023-02-01T16:36:14;5.30;25.50
530;DHT22;251;48.704;9.210;2023-02-01T16:38:41;5.80;25.80
530;DHT22;251;48.704;9.210;2023-02-01T16:41:12;5.60;25.90
530;DHT22;251;48.704;9.210;2023-02-01T16:43:39;5.20;25.30
530;DHT22;251;48.704;9.210;2023-02-01T16:46:13;5.30;25.70
530;DHT22;251;48.704;9.210;2023-02-01T16:48:42;5.40;25.40
530;DHT22;251;48.704;9.210;2023-02-01T16:51:14;5.20;25.60
530;DHT22;251;48.704;9.210;2023-02-01T16:53:43;5.40;25.60
530;DHT22;251;48.704;9.210;2023-02-01T16:56:14;5.30;25.60
530;DHT22;251;48.704;9.210;2023-02-01T16:58:41;5.30;25.50
530;DHT22;251;48.704;9.210;2023-02-01T17:01:09;5.50;25.80
530;DHT22;251;48.704;9.210;2023-02-01T17:03:36;5.40;25.70
530;DHT22;251;48.704;9.210;2023-02-01T17:06:04;5.30;25.60
530;DHT22;251;48.704;9.210;2023-02-01T17:08:36;5.30;25.10
530;DHT22;251;48.704;9.210;2023-02-01T17:11:04;5.30;25.50
530;DHT22;251;48.704;9.210;2023-02-01T17:13:32;5.30;25.00
530;DHT22;251;48.704;9.210;2023-02-01T17:16:01;5.30;25.10
530;DHT22;251;48.704;9.210;2023-02-01T17:18:32;5.30;25.10
530;DHT22;251;48.704;9.210;2023-02-01T17:21:01;5.50;25.20
530;DHT22;251;48.704;9.210;2023-02-01T17:23:29;5.20;25.30
530;DHT22;251;48.704;9.210;2023-02-01T17:25:57;5.30;25.10
530;DHT22;251;48.704;9.210;2023-02-01T17:28:24;5.30;25.40
530;DHT22;251;48.704;9.210;2023-02-01T17:30:51;5.30;25.30
530;DHT22;251;48.704;9.210;2023-02-01T17:33:21;5.30;25.80
530;DHT22;251;48.704;9.210;2023-02-01T17:35:48;5.30;25.50
530;DHT22;251;48.704;9.210;2023-02-01T17:38:16;5.50;25.60